createdAt,value
2022-08-27T00:01:28.886Z,50.55
2022-08-27T00:03:56.455Z,50.67
2022-08-27T00:06:24.725Z,49.13
2022-08-27T00:08:52.613Z,46.47
2022-08-27T00:11:20.480Z,53.40
2022-08-27T00:13:48.008Z,52.97
2022-08-27T00:16:16.393Z,53.17
2022-08-27T00:18:48.028Z,53.20
2022-08-27T00:21:16.077Z,54.88
2022-08-27T00:23:43.371Z,54.22
2022-08-27T00:26:10.616Z,59.28
2022-08-27T00:28:37.945Z,50.15
2022-08-27T00:31:04.834Z,52.80
2022-08-27T00:33:31.966Z,47.30
2022-08-27T00:35:58.827Z,49.15
2022-08-27T00:38:25.553Z,49.72
2022-08-27T00:40:53.479Z,60.05
2022-08-27T00:43:23.815Z,61.05
2022-08-27T00:45:51.902Z,58.70
2022-08-27T00:48:22.188Z,61.47
2022-08-27T00:50:52.068Z,67.18
2022-08-27T00:53:24.353Z,57.17
2022-08-27T00:55:59.968Z,57.95
2022-08-27T00:58:38.031Z,57.13
2022-08-27T01:01:11.413Z,61.95
2022-08-27T01:03:39.567Z,57.40
2022-08-27T01:06:09.928Z,61.15
2022-08-27T01:08:38.797Z,62.05
2022-08-27T01:11:05.885Z,59.10
2022-08-27T01:13:58.913Z,65.07
2022-08-27T01:16:27.379Z,66.00
2022-08-27T01:18:55.299Z,67.53
2022-08-27T01:21:34.538Z,62.80
2022-08-27T01:24:07.018Z,66.38
2022-08-27T01:29:01.076Z,64.00
2022-08-27T01:31:29.386Z,65.10
2022-08-27T01:34:03.643Z,62.75
2022-08-27T01:36:30.315Z,70.80
2022-08-27T01:38:57.574Z,69.40
2022-08-27T01:41:25.373Z,70.90
2022-08-27T01:43:52.572Z,68.43
2022-08-27T01:46:24.482Z,62.72
2022-08-27T01:48:51.496Z,65.32
2022-08-27T01:51:18.503Z,66.47
2022-08-27T01:53:45.454Z,68.60
2022-08-27T01:56:17.717Z,68.32
2022-08-27T02:01:45.957Z,64.22
2022-08-27T02:04:15.428Z,70.32
2022-08-27T02:07:03.226Z,73.13
2022-08-27T02:09:50.287Z,69.47
2022-08-27T02:12:26.095Z,69.05
2022-08-27T02:14:58.955Z,67.43
2022-08-27T02:17:30.918Z,73.63
2022-08-27T02:20:07.796Z,68.18
2022-08-27T02:22:35.507Z,74.55
2022-08-27T02:25:07.151Z,68.82
2022-08-27T02:27:43.583Z,70.22
2022-08-27T02:30:18.259Z,73.40
2022-08-27T02:32:49.814Z,70.88
2022-08-27T02:35:25.074Z,73.03
2022-08-27T02:38:03.765Z,74.45
2022-08-27T02:40:31.428Z,75.22
2022-08-27T02:43:09.952Z,82.03
2022-08-27T02:46:17.301Z,77.15
2022-08-27T02:48:49.439Z,82.43
2022-08-27T02:54:19.785Z,70.05
2022-08-27T02:57:02.045Z,79.07
2022-08-27T02:59:41.177Z,74.68
2022-08-27T03:02:24.214Z,72.70
2022-08-27T03:05:01.023Z,78.70
2022-08-27T03:07:32.681Z,78.50
2022-08-27T03:10:05.431Z,76.85
2022-08-27T03:12:47.308Z,75.85
2022-08-27T03:15:19.787Z,73.43
2022-08-27T03:18:19.386Z,76.50
2022-08-27T03:20:58.120Z,69.70
2022-08-27T03:23:29.761Z,70.80
2022-08-27T03:26:03.339Z,77.78
2022-08-27T03:28:37.760Z,68.22
2022-08-27T03:31:09.288Z,76.65
2022-08-27T03:33:42.752Z,70.85
2022-08-27T03:36:16.055Z,66.93
2022-08-27T03:38:46.599Z,68.03
2022-08-27T03:41:18.030Z,64.55
2022-08-27T03:43:48.125Z,67.30
2022-08-27T03:46:33.687Z,60.63
2022-08-27T03:49:13.354Z,57.95
2022-08-27T03:51:44.692Z,54.45
2022-08-27T03:54:19.355Z,50.33
2022-08-27T03:56:55.517Z,52.72
2022-08-27T03:59:36.857Z,52.33
2022-08-27T04:02:09.355Z,50.67
2022-08-27T04:04:41.952Z,54.10
2022-08-27T04:07:14.531Z,48.47
2022-08-27T04:09:53.664Z,52.30
2022-08-27T04:12:31.106Z,50.80
2022-08-27T04:17:41.496Z,51.63
2022-08-27T04:20:35.959Z,54.17
2022-08-27T04:23:19.309Z,52.83
2022-08-27T04:25:50.966Z,54.08
2022-08-27T04:28:21.396Z,59.08
2022-08-27T04:30:51.297Z,59.83
2022-08-27T04:33:19.011Z,66.85
2022-08-27T04:36:03.058Z,62.70
2022-08-27T04:38:36.504Z,61.28
2022-08-27T04:41:23.521Z,64.05
2022-08-27T04:44:05.638Z,64.20
2022-08-27T04:46:36.812Z,64.85
2022-08-27T04:49:18.444Z,65.82
2022-08-27T04:51:57.042Z,61.58
2022-08-27T04:54:32.982Z,69.80
2022-08-27T04:57:06.396Z,69.93
2022-08-27T04:59:45.240Z,64.35
2022-08-27T05:02:16.995Z,69.07
2022-08-27T05:04:59.408Z,66.20
2022-08-27T05:07:35.630Z,64.00
2022-08-27T05:10:14.875Z,69.25
2022-08-27T05:12:46.671Z,67.72
2022-08-27T05:15:28.752Z,60.95
2022-08-27T05:18:10.631Z,70.05
2022-08-27T05:20:47.218Z,62.05
2022-08-27T05:23:19.028Z,58.88
2022-08-27T05:25:52.735Z,61.40
2022-08-27T05:28:27.861Z,61.67
2022-08-27T05:31:03.977Z,67.68
2022-08-27T05:33:32.688Z,58.88
2022-08-27T05:36:03.321Z,59.70
2022-08-27T05:38:31.797Z,55.30
2022-08-27T05:41:09.016Z,56.05
2022-08-27T05:43:50.562Z,61.80
2022-08-27T05:46:42.737Z,64.88
2022-08-27T05:49:13.535Z,66.30
2022-08-27T05:51:48.275Z,61.63
2022-08-27T05:54:23.926Z,58.20
2022-08-27T05:57:06.435Z,54.70
2022-08-27T05:59:57.743Z,52.65
2022-08-27T06:02:34.457Z,54.70
2022-08-27T06:05:11.815Z,54.47
2022-08-27T06:07:48.849Z,53.90
2022-08-27T06:10:23.275Z,53.83
2022-08-27T06:12:56.912Z,56.47
2022-08-27T06:15:26.936Z,54.15
2022-08-27T06:17:59.974Z,54.70
2022-08-27T06:20:38.443Z,51.35
2022-08-27T06:23:09.799Z,51.78
2022-08-27T06:25:56.193Z,57.20
2022-08-27T06:28:32.360Z,53.63
2022-08-27T06:31:17.289Z,54.38
2022-08-27T06:33:47.853Z,52.38
2022-08-27T06:36:25.474Z,50.30
2022-08-27T06:39:01.348Z,51.95
2022-08-27T06:41:32.135Z,58.25
2022-08-27T06:43:59.796Z,48.67
2022-08-27T06:46:31.028Z,52.33
2022-08-27T06:49:05.565Z,51.30
2022-08-27T06:51:38.756Z,49.60
2022-08-27T06:54:15.481Z,57.95
2022-08-27T06:56:58.875Z,51.85
2022-08-27T06:59:32.260Z,53.10
2022-08-27T07:02:05.653Z,47.00
2022-08-27T07:04:56.558Z,51.08
2022-08-27T07:07:55.372Z,51.65
2022-08-27T07:10:32.045Z,47.78
2022-08-27T07:13:09.848Z,48.83
2022-08-27T07:15:46.576Z,45.70
2022-08-27T07:18:27.344Z,47.75
2022-08-27T07:21:05.605Z,44.78
2022-08-27T07:23:43.405Z,46.25
2022-08-27T07:26:13.860Z,48.38
2022-08-27T07:28:50.163Z,49.60
2022-08-27T07:31:25.394Z,51.45
2022-08-27T07:34:05.791Z,43.25
2022-08-27T07:36:38.452Z,42.13
2022-08-27T07:39:08.468Z,44.13
2022-08-27T07:42:00.893Z,47.78
2022-08-27T07:44:34.396Z,48.20
2022-08-27T07:47:03.511Z,46.70
2022-08-27T07:49:32.184Z,47.28
2022-08-27T07:52:23.617Z,49.25
2022-08-27T07:54:54.758Z,48.85
2022-08-27T07:57:22.303Z,49.67
2022-08-27T07:59:57.043Z,76.45
2022-08-27T08:02:24.143Z,71.85
2022-08-27T08:04:51.693Z,95.63
2022-08-27T08:07:18.594Z,81.35
2022-08-27T08:09:45.274Z,79.05
2022-08-27T08:12:12.010Z,85.15
2022-08-27T08:14:38.728Z,84.18
2022-08-27T08:17:05.628Z,78.93
2022-08-27T08:19:36.861Z,96.63
2022-08-27T08:22:05.789Z,75.25
2022-08-27T08:24:34.373Z,69.80
2022-08-27T08:27:05.093Z,76.22
2022-08-27T08:29:33.753Z,75.50
2022-08-27T08:32:00.625Z,78.70
2022-08-27T08:34:29.031Z,69.55
2022-08-27T08:36:55.694Z,85.82
2022-08-27T08:39:23.894Z,78.13
2022-08-27T08:41:56.561Z,79.93
2022-08-27T08:44:49.631Z,80.13
2022-08-27T08:47:27.261Z,73.85
2022-08-27T08:50:05.733Z,66.47
2022-08-27T08:52:35.657Z,80.78
2022-08-27T08:55:25.817Z,75.25
2022-08-27T08:58:00.093Z,86.82
2022-08-27T09:00:27.310Z,80.65
2022-08-27T09:02:54.965Z,94.68
2022-08-27T09:05:24.070Z,76.97
2022-08-27T09:08:34.056Z,71.68
2022-08-27T09:11:14.052Z,90.88
2022-08-27T09:13:43.298Z,77.95
2022-08-27T09:16:10.238Z,81.88
2022-08-27T09:18:40.925Z,84.22
2022-08-27T09:21:29.978Z,76.70
2022-08-27T09:24:14.842Z,78.13
2022-08-27T09:26:44.031Z,80.88
2022-08-27T09:29:17.478Z,71.13
2022-08-27T09:31:54.099Z,76.72
2022-08-27T09:34:30.827Z,75.18
2022-08-27T09:37:04.473Z,72.90
2022-08-27T09:40:23.184Z,78.03
2022-08-27T09:43:19.830Z,74.30
2022-08-27T09:46:17.977Z,64.47
2022-08-27T09:48:58.177Z,81.95
2022-08-27T09:51:32.503Z,67.97
2022-08-27T09:54:09.560Z,71.35
2022-08-27T09:56:54.017Z,77.75
2022-08-27T09:59:35.991Z,74.30
2022-08-27T10:02:08.072Z,76.18
2022-08-27T10:04:55.763Z,81.10
2022-08-27T10:07:54.350Z,71.43
2022-08-27T10:10:58.925Z,71.50
2022-08-27T10:13:45.771Z,68.97
2022-08-27T10:16:51.033Z,72.78
2022-08-27T10:19:58.562Z,71.82
2022-08-27T10:22:41.740Z,77.90
2022-08-27T10:25:36.556Z,73.22
2022-08-27T10:28:40.504Z,68.35
2022-08-27T10:31:45.361Z,63.05
2022-08-27T10:34:29.503Z,62.80
2022-08-27T10:37:36.718Z,68.97
2022-08-27T10:40:27.693Z,70.03
2022-08-27T10:43:24.594Z,72.30
2022-08-27T10:46:06.690Z,72.85
2022-08-27T10:49:00.412Z,67.70
2022-08-27T10:52:18.667Z,64.03
2022-08-27T10:55:26.721Z,64.07
2022-08-27T10:58:30.639Z,59.13
2022-08-27T11:01:21.655Z,62.78
2022-08-27T11:04:12.247Z,65.32
2022-08-27T11:06:55.424Z,66.88
2022-08-27T11:09:28.413Z,67.05
2022-08-27T11:12:17.373Z,69.25
2022-08-27T11:15:13.041Z,73.15
2022-08-27T11:17:52.269Z,67.82
2022-08-27T11:20:33.925Z,68.28
2022-08-27T11:23:22.579Z,65.73
2022-08-27T11:26:04.309Z,63.30
2022-08-27T11:28:49.314Z,63.53
2022-08-27T11:31:34.970Z,70.15
2022-08-27T11:34:30.540Z,76.93
2022-08-27T11:37:38.652Z,67.93
2022-08-27T11:40:48.081Z,64.18
2022-08-27T11:43:24.411Z,75.82
2022-08-27T11:46:11.430Z,79.57
2022-08-27T11:48:42.481Z,72.72
2022-08-27T11:51:20.587Z,73.75
2022-08-27T11:54:06.397Z,70.18
2022-08-27T11:56:57.896Z,71.43
2022-08-27T11:59:40.808Z,73.78
2022-08-27T12:02:59.446Z,86.43
2022-08-27T12:05:44.443Z,69.80
2022-08-27T12:08:37.956Z,78.00
2022-08-27T12:11:43.331Z,76.53
2022-08-27T12:14:33.699Z,85.00
2022-08-27T12:17:30.802Z,77.88
2022-08-27T12:20:42.494Z,76.47
2022-08-27T12:23:42.483Z,79.97
2022-08-27T12:26:35.043Z,74.65
2022-08-27T12:29:27.751Z,77.10
2022-08-27T12:32:31.306Z,82.70
2022-08-27T12:35:19.992Z,75.22
2022-08-27T12:38:29.983Z,76.13
2022-08-27T12:41:26.524Z,75.93
2022-08-27T12:44:19.120Z,78.10
2022-08-27T12:47:05.780Z,88.65
2022-08-27T12:49:55.920Z,80.35
2022-08-27T12:52:46.980Z,89.07
2022-08-27T12:56:19.727Z,82.72
2022-08-27T12:59:07.822Z,78.65
2022-08-27T13:02:22.381Z,67.05
2022-08-27T13:05:10.307Z,71.35
2022-08-27T13:07:57.230Z,73.60
2022-08-27T13:11:14.407Z,77.60
2022-08-27T13:13:47.675Z,70.20
2022-08-27T13:16:18.936Z,78.22
2022-08-27T13:18:59.538Z,63.70
2022-08-27T13:21:37.514Z,70.15
2022-08-27T13:24:09.931Z,58.55
2022-08-27T13:29:32.601Z,61.45
2022-08-27T13:32:03.581Z,61.72
2022-08-27T13:34:42.151Z,61.88
2022-08-27T13:37:30.570Z,54.47
2022-08-27T13:42:31.812Z,58.60
2022-08-27T13:45:32.200Z,55.75
2022-08-27T13:48:12.568Z,58.15
2022-08-27T13:50:55.736Z,59.80
2022-08-27T13:54:18.731Z,61.03
2022-08-27T13:56:49.704Z,61.72
2022-08-27T13:59:20.181Z,61.30
2022-08-27T14:02:06.934Z,58.00
2022-08-27T14:05:16.543Z,58.80
2022-08-27T14:07:56.929Z,56.53
2022-08-27T14:10:59.779Z,58.50
2022-08-27T14:13:45.524Z,55.05
2022-08-27T14:17:01.085Z,51.13
2022-08-27T14:19:38.170Z,50.42
2022-08-27T14:22:05.886Z,62.53
2022-08-27T14:24:44.119Z,52.25
2022-08-27T14:27:15.491Z,52.13
2022-08-27T14:29:54.982Z,55.60
2022-08-27T14:32:42.389Z,52.67
2022-08-27T14:35:12.799Z,52.05
2022-08-27T14:37:44.415Z,55.65
2022-08-27T14:40:27.384Z,54.03
2022-08-27T14:43:01.047Z,55.78
2022-08-27T14:45:45.247Z,56.17
2022-08-27T14:48:38.743Z,55.90
2022-08-27T14:51:23.395Z,56.53
2022-08-27T14:53:51.500Z,55.78
2022-08-27T14:56:19.254Z,51.05
2022-08-27T14:58:46.019Z,55.33
2022-08-27T15:01:13.929Z,55.95
2022-08-27T15:03:46.455Z,50.53
2022-08-27T15:06:13.661Z,55.60
2022-08-27T15:08:41.388Z,57.03
2022-08-27T15:11:23.531Z,58.08
2022-08-27T15:13:52.197Z,53.72
2022-08-27T15:16:35.304Z,56.58
2022-08-27T15:19:02.636Z,56.72
2022-08-27T15:21:30.663Z,52.03
2022-08-27T15:24:02.342Z,56.53
2022-08-27T15:26:29.406Z,58.27
2022-08-27T15:28:56.237Z,56.25
2022-08-27T15:31:23.367Z,53.28
2022-08-27T15:33:50.135Z,57.95
2022-08-27T15:36:16.902Z,51.78
2022-08-27T15:38:43.629Z,55.63
2022-08-27T15:41:10.699Z,55.03
2022-08-27T15:43:38.436Z,53.80
2022-08-27T15:46:05.596Z,53.47
2022-08-27T15:48:32.349Z,45.58
2022-08-27T15:51:13.374Z,54.05
2022-08-27T15:53:42.088Z,49.20
2022-08-27T15:56:09.547Z,52.45
2022-08-27T15:58:37.278Z,50.90
2022-08-27T16:01:12.209Z,49.75
2022-08-27T16:03:39.371Z,46.33
2022-08-27T16:06:06.458Z,46.08
2022-08-27T16:08:36.646Z,45.40
2022-08-27T16:11:09.103Z,49.33
2022-08-27T16:13:35.858Z,39.55
2022-08-27T16:16:02.815Z,45.72
2022-08-27T16:18:32.491Z,46.55
2022-08-27T16:21:00.653Z,42.53
2022-08-27T16:23:28.106Z,42.70
2022-08-27T16:25:56.053Z,48.00
2022-08-27T16:28:24.744Z,52.97
2022-08-27T16:30:52.823Z,50.15
2022-08-27T16:33:20.189Z,52.13
2022-08-27T16:35:47.014Z,50.20
2022-08-27T16:38:14.104Z,51.13
2022-08-27T16:40:49.165Z,43.75
2022-08-27T16:43:21.214Z,47.75
2022-08-27T16:45:50.037Z,58.03
2022-08-27T16:48:35.908Z,51.55
2022-08-27T16:51:04.633Z,55.85
2022-08-27T16:53:34.731Z,57.00
2022-08-27T16:56:01.802Z,57.20
2022-08-27T16:58:30.173Z,57.45
2022-08-27T17:01:01.113Z,56.67
2022-08-27T17:03:28.600Z,54.03
2022-08-27T17:05:55.341Z,57.03
2022-08-27T17:08:26.072Z,64.75
2022-08-27T17:10:54.619Z,57.63
2022-08-27T17:13:28.349Z,60.60
2022-08-27T17:15:56.257Z,59.33
2022-08-27T17:18:27.713Z,60.35
2022-08-27T17:20:55.574Z,56.87
2022-08-27T17:23:36.794Z,62.10
2022-08-27T17:26:05.396Z,71.63
2022-08-27T17:28:32.297Z,67.90
2022-08-27T17:31:00.439Z,71.38
2022-08-27T17:33:36.307Z,78.68
2022-08-27T17:36:03.551Z,73.32
2022-08-27T17:38:34.101Z,75.78
2022-08-27T17:41:06.223Z,71.28
2022-08-27T17:43:32.871Z,76.45
2022-08-27T17:45:59.641Z,82.85
2022-08-27T17:48:26.899Z,81.40
2022-08-27T17:50:54.333Z,79.60
2022-08-27T17:53:21.361Z,86.82
2022-08-27T17:55:48.114Z,82.45
2022-08-27T17:58:15.049Z,81.00
2022-08-27T18:00:45.046Z,292.42
2022-08-27T18:03:18.241Z,125.18
2022-08-27T18:05:46.891Z,120.88
2022-08-27T18:08:14.927Z,115.63
2022-08-27T18:10:42.398Z,77.18
2022-08-27T18:13:10.371Z,71.57
2022-08-27T18:15:39.179Z,68.00
2022-08-27T18:18:07.011Z,68.82
2022-08-27T18:20:36.108Z,74.28
2022-08-27T18:23:03.211Z,71.45
2022-08-27T18:25:35.992Z,69.18
2022-08-27T18:28:06.466Z,75.47
2022-08-27T18:30:33.667Z,66.75
2022-08-27T18:33:02.004Z,69.03
2022-08-27T18:35:30.948Z,60.85
2022-08-27T18:38:02.882Z,55.13
2022-08-27T18:40:32.428Z,50.72
2022-08-27T18:42:59.215Z,51.65
2022-08-27T18:45:28.764Z,46.13
2022-08-27T18:47:58.203Z,54.30
2022-08-27T18:50:25.472Z,55.47
2022-08-27T18:52:54.065Z,53.08
2022-08-27T18:55:24.782Z,49.67
2022-08-27T18:57:51.831Z,54.47
2022-08-27T19:00:19.817Z,60.70
2022-08-27T19:02:52.444Z,68.35
2022-08-27T19:05:29.366Z,60.75
2022-08-27T19:07:57.237Z,46.60
2022-08-27T19:10:25.047Z,47.67
2022-08-27T19:12:51.897Z,52.42
2022-08-27T19:15:19.072Z,40.38
2022-08-27T19:17:50.909Z,44.67
2022-08-27T19:20:18.766Z,44.40
2022-08-27T19:22:47.011Z,41.58
2022-08-27T19:25:14.723Z,44.05
2022-08-27T19:27:41.503Z,40.88
2022-08-27T19:30:08.663Z,34.25
2022-08-27T19:32:35.463Z,30.98
2022-08-27T19:35:02.210Z,32.42
2022-08-27T19:37:30.915Z,29.20
2022-08-27T19:39:57.792Z,30.40
2022-08-27T19:42:25.004Z,32.00
2022-08-27T19:44:52.425Z,28.67
2022-08-27T19:47:27.419Z,30.38
2022-08-27T19:49:55.094Z,26.95
2022-08-27T19:52:27.987Z,26.83
2022-08-27T19:55:13.194Z,30.98
2022-08-27T19:57:47.099Z,32.28
2022-08-27T20:00:20.798Z,26.13
2022-08-27T20:02:56.295Z,30.33
2022-08-27T20:05:24.718Z,27.42
2022-08-27T20:07:52.989Z,28.80
2022-08-27T20:10:31.539Z,30.20
2022-08-27T20:13:03.807Z,34.53
2022-08-27T20:15:31.345Z,34.28
2022-08-27T20:17:59.726Z,34.45
2022-08-27T20:20:28.682Z,32.20
2022-08-27T20:22:56.371Z,33.60
2022-08-27T20:25:24.090Z,33.00
2022-08-27T20:27:52.147Z,29.20
2022-08-27T20:30:22.935Z,29.52
2022-08-27T20:32:50.372Z,32.53
2022-08-27T20:35:18.344Z,35.58
2022-08-27T20:37:46.317Z,29.52
2022-08-27T20:40:18.071Z,29.00
2022-08-27T20:42:44.988Z,33.08
2022-08-27T20:45:12.814Z,29.90
2022-08-27T20:47:40.706Z,31.13
2022-08-27T20:50:08.207Z,35.67
2022-08-27T20:52:36.207Z,33.55
2022-08-27T20:55:03.769Z,27.17
2022-08-27T20:57:30.611Z,28.13
2022-08-27T21:00:16.080Z,29.75
2022-08-27T21:02:42.836Z,28.13
2022-08-27T21:05:14.780Z,27.48
2022-08-27T21:07:42.429Z,32.15
2022-08-27T21:10:09.379Z,36.65
2022-08-27T21:12:36.268Z,28.67
2022-08-27T21:15:05.565Z,31.77
2022-08-27T21:17:32.271Z,34.38
2022-08-27T21:19:59.205Z,31.33
2022-08-27T21:22:26.713Z,27.02
2022-08-27T21:24:53.383Z,35.30
2022-08-27T21:27:21.511Z,27.58
2022-08-27T21:29:48.595Z,28.02
2022-08-27T21:32:15.600Z,32.10
2022-08-27T21:34:42.369Z,28.10
2022-08-27T21:37:11.187Z,32.25
2022-08-27T21:39:38.763Z,31.95
2022-08-27T21:42:05.680Z,32.20
2022-08-27T21:44:32.479Z,30.77
2022-08-27T21:47:00.826Z,33.08
2022-08-27T21:49:28.119Z,32.90
2022-08-27T21:51:54.897Z,37.70
2022-08-27T21:54:21.607Z,35.38
2022-08-27T21:56:52.891Z,33.92
2022-08-27T21:59:20.115Z,28.65
2022-08-27T22:01:47.128Z,32.40
2022-08-27T22:04:14.093Z,32.33
2022-08-27T22:06:40.873Z,35.25
2022-08-27T22:09:07.688Z,35.33
2022-08-27T22:11:34.780Z,33.55
2022-08-27T22:14:01.473Z,36.22
2022-08-27T22:16:29.283Z,29.80
2022-08-27T22:18:57.201Z,32.05
2022-08-27T22:21:24.943Z,31.75
2022-08-27T22:23:52.686Z,31.58
2022-08-27T22:26:21.086Z,31.88
2022-08-27T22:28:48.494Z,38.13
2022-08-27T22:31:15.879Z,33.20
2022-08-27T22:33:42.844Z,33.35
2022-08-27T22:36:10.171Z,35.17
2022-08-27T22:38:37.025Z,32.45
2022-08-27T22:41:05.300Z,29.42
2022-08-27T22:43:31.998Z,35.88
2022-08-27T22:45:58.893Z,33.80
2022-08-27T22:48:25.859Z,31.10
2022-08-27T22:50:55.420Z,32.65
2022-08-27T22:53:22.233Z,35.50
2022-08-27T22:55:50.381Z,36.15
2022-08-27T22:58:17.905Z,29.08
2022-08-27T23:00:50.151Z,31.42
2022-08-27T23:03:19.747Z,34.45
2022-08-27T23:05:46.716Z,32.83
2022-08-27T23:08:14.319Z,28.58
2022-08-27T23:10:42.833Z,35.28
2022-08-27T23:13:10.838Z,38.78
2022-08-27T23:15:38.820Z,32.58
2022-08-27T23:18:06.030Z,35.72
2022-08-27T23:20:32.983Z,39.10
2022-08-27T23:22:59.729Z,37.20
2022-08-27T23:25:45.766Z,38.35
2022-08-27T23:28:14.995Z,38.55
2022-08-27T23:30:43.382Z,37.80
2022-08-27T23:33:10.328Z,47.95
2022-08-27T23:35:37.353Z,40.28
2022-08-27T23:38:04.655Z,47.40
2022-08-27T23:40:31.545Z,43.03
2022-08-27T23:42:58.376Z,45.58
2022-08-27T23:45:25.900Z,44.70
2022-08-27T23:47:52.813Z,43.75
2022-08-27T23:50:21.860Z,47.83
2022-08-27T23:52:58.306Z,46.05
2022-08-27T23:55:25.071Z,48.08
2022-08-27T23:57:51.837Z,45.05
